Time;durP1;ratioP1;P1;durP2;ratioP2;P2;SDS_P1;SDS_P2;PMS_P1;PMS_P2;Temp;Humidity;BMP_temperature;BMP_pressure;BME280_temperature;BME280_humidity;BME280_pressure;Samples;Min_cycle;Max_cycle;Signal;HPM_P1;HPM_P2
2021/09/29 00:03:53;;;;;;;;;0.00;0.00;;;;;;;;2;279080976;279080976;-80
2021/09/29 00:12:35;;;;;;;;;0.00;0.00;;;;;;;;2;234071431;234071431;-80
2021/09/29 00:21:36;;;;;;;;;0.00;0.00;;;;;;;;2;279079282;279079282;-79
2021/09/29 00:30:19;;;;;;;;;0.00;0.00;;;;;;;;2;234069421;234069421;-80
2021/09/29 00:39:20;;;;;;;;;0.00;0.00;;;;;;;;2;279079888;279079888;-80
2021/09/29 00:48:03;;;;;;;;;0.00;0.00;;;;;;;;2;234070641;234070641;-80
2021/09/29 00:57:03;;;;;;;;;0.00;0.00;;;;;;;;2;279080379;279080379;-79
2021/09/29 01:05:47;;;;;;;;;0.00;0.00;;;;;;;;2;234067630;234067630;-79
2021/09/29 01:14:58;;;;;;;;;0.00;0.00;;;;;;;;2;279081485;279081485;-79
2021/09/29 01:23:48;;;;;;;;;44.00;44.00;;;;;;;;2;234067335;234067335;-79
2021/09/29 01:32:48;;;;;;;;;42.50;42.50;;;;;;;;2;279080617;279080617;-81
2021/09/29 01:41:31;;;;;;;;;38.00;36.00;;;;;;;;2;234070370;234070370;-81
2021/09/29 01:50:32;;;;;;;;;36.50;33.50;;;;;;;;2;279081803;279081803;-80
2021/09/29 01:59:15;;;;;;;;;0.00;0.00;;;;;;;;2;234069598;234069598;-80
2021/09/29 02:08:16;;;;;;;;;0.00;0.00;;;;;;;;2;279081464;279081464;-81
2021/09/29 02:16:58;;;;;;;;;36.50;33.00;;;;;;;;2;234068410;234068410;-80
2021/09/29 02:25:59;;;;;;;;;7.00;7.00;;;;;;;;2;279079751;279079751;-81
2021/09/29 02:34:41;;;;;;;;;32.50;26.50;;;;;;;;2;234070624;234070624;-80
2021/09/29 02:43:42;;;;;;;;;21.50;19.00;;;;;;;;2;279081976;279081976;-80
2021/09/29 02:52:24;;;;;;;;;0.00;0.00;;;;;;;;2;234069204;234069204;-80
2021/09/29 03:01:25;;;;;;;;;41.50;41.50;;;;;;;;2;279079245;279079245;-80
2021/09/29 03:10:08;;;;;;;;;31.00;25.50;;;;;;;;2;234070945;234070945;-80
2021/09/29 03:19:09;;;;;;;;;121.00;121.00;;;;;;;;2;279079794;279079794;-81
2021/09/29 03:27:52;;;;;;;;;131.50;131.50;;;;;;;;2;234069747;234069747;-82
2021/09/29 03:36:53;;;;;;;;;143.00;143.00;;;;;;;;2;279079844;279079844;-80
2021/09/29 03:45:35;;;;;;;;;133.00;133.00;;;;;;;;2;234068739;234068739;-80
2021/09/29 03:54:36;;;;;;;;;128.00;128.00;;;;;;;;2;279080326;279080326;-81
2021/09/29 04:03:18;;;;;;;;;142.50;142.50;;;;;;;;2;234070989;234070989;-83
2021/09/29 04:12:21;;;;;;;;;120.00;120.00;;;;;;;;2;279080778;279080778;-83
2021/09/29 04:21:04;;;;;;;;;33.50;28.00;;;;;;;;2;234070470;234070470;-83
2021/09/29 04:30:05;;;;;;;;;156.00;156.00;;;;;;;;2;279079762;279079762;-82
2021/09/29 04:38:47;;;;;;;;;157.50;157.50;;;;;;;;2;234065987;234065987;-83
2021/09/29 04:47:48;;;;;;;;;155.00;155.00;;;;;;;;2;279081210;279081210;-86
2021/09/29 04:56:31;;;;;;;;;154.50;154.50;;;;;;;;2;234071629;234071629;-84
2021/09/29 05:05:34;;;;;;;;;154.50;154.50;;;;;;;;2;279083411;279083411;-83
2021/09/29 05:14:16;;;;;;;;;162.00;162.00;;;;;;;;2;234069285;234069285;-83
2021/09/29 06:11:34;;;;;;;;;152.50;152.50;;;;;;;;2;234071251;234071251;-86
2021/09/29 06:20:36;;;;;;;;;87.00;78.50;;;;;;;;2;279084804;279084804;-83
2021/09/29 06:29:18;;;;;;;;;160.50;160.50;;;;;;;;2;234069762;234069762;-84
2021/09/29 06:38:19;;;;;;;;;158.50;158.50;;;;;;;;2;279081744;279081744;-87
2021/09/29 06:47:02;;;;;;;;;154.50;154.50;;;;;;;;2;234066432;234066432;-84
2021/09/29 06:56:05;;;;;;;;;175.50;173.50;;;;;;;;2;279082347;279082347;-84
2021/09/29 07:04:48;;;;;;;;;162.00;162.00;;;;;;;;2;234068009;234068009;-83
2021/09/29 07:13:48;;;;;;;;;170.50;170.50;;;;;;;;2;279081262;279081262;-87
2021/09/29 07:22:41;;;;;;;;;171.00;171.00;;;;;;;;2;234067586;234067586;-87
2021/09/29 07:31:42;;;;;;;;;164.50;164.50;;;;;;;;2;279082350;279082350;-86
2021/09/29 07:40:25;;;;;;;;;170.00;170.00;;;;;;;;2;234069058;234069058;-87
2021/09/29 07:49:25;;;;;;;;;173.50;173.50;;;;;;;;2;279081910;279081910;-86
2021/09/29 07:58:08;;;;;;;;;163.00;163.00;;;;;;;;2;234070854;234070854;-86
2021/09/29 08:07:09;;;;;;;;;162.50;162.50;;;;;;;;2;279079685;279079685;-86
2021/09/29 08:15:52;;;;;;;;;168.00;168.00;;;;;;;;2;234069383;234069383;-85
2021/09/29 08:52:26;;;;;;;;;;;;;;;;;;2;234067999;234067999;-81
2021/09/29 09:19:50;;;;;;;;;165.00;165.00;;;;;;;;2;279082740;279082740;-79
2021/09/29 09:28:32;;;;;;;;;165.50;165.50;;;;;;;;2;234069006;234069006;-80
2021/09/29 09:37:33;;;;;;;;;163.00;163.00;;;;;;;;2;279083016;279083016;-80
2021/09/29 09:46:16;;;;;;;;;174.00;174.00;;;;;;;;2;234066975;234066975;-81
2021/09/29 09:55:18;;;;;;;;;163.50;163.50;;;;;;;;2;279081244;279081244;-80
2021/09/29 10:07:21;;;;;;;;;167.00;167.00;;;;;;;;2;234069088;234069088;-81
2021/09/29 10:34:55;;;;;;;;;162.00;162.00;;;;;;;;2;279078174;279078174;-80
2021/09/29 10:44:04;;;;;;;;;169.00;169.00;;;;;;;;2;234069914;234069914;-81
2021/09/29 11:12:01;;;;;;;;;172.00;172.00;;;;;;;;2;279080419;279080419;-87
2021/09/29 11:30:18;;;;;;;;;158.00;158.00;;;;;;;;2;279079302;279079302;-88
2021/09/29 12:15:45;;;;;;;;;162.50;162.50;;;;;;;;2;234068410;234068410;-83
2021/09/29 12:24:56;;;;;;;;;160.50;160.50;;;;;;;;2;279080673;279080673;-83
2021/09/29 12:43:20;;;;;;;;;166.50;166.50;;;;;;;;2;279080900;279080900;-81
2021/09/29 12:52:10;;;;;;;;;158.00;158.00;;;;;;;;2;234071499;234071499;-81
2021/09/29 13:01:11;;;;;;;;;166.00;166.00;;;;;;;;2;279079344;279079344;-79
2021/09/29 13:09:54;;;;;;;;;184.00;184.00;;;;;;;;2;234068683;234068683;-80
2021/09/29 13:19:10;;;;;;;;;173.00;173.00;;;;;;;;2;279080256;279080256;-81
2021/09/29 13:37:12;;;;;;;;;150.00;150.00;;;;;;;;2;279078635;279078635;-80
2021/09/29 13:45:55;;;;;;;;;169.50;169.50;;;;;;;;2;234067882;234067882;-79
2021/09/29 13:55:03;;;;;;;;;175.00;175.00;;;;;;;;2;279081314;279081314;-81
2021/09/29 14:40:25;;;;;;;;;139.50;139.50;;;;;;;;2;234067646;234067646;-82
2021/09/29 14:49:28;;;;;;;;;160.00;160.00;;;;;;;;2;279079817;279079817;-84
2021/09/29 14:58:10;;;;;;;;;148.00;148.00;;;;;;;;2;234068026;234068026;-84
2021/09/29 15:07:11;;;;;;;;;160.00;156.00;;;;;;;;2;279017421;279017421;-83
2021/09/29 15:15:59;;;;;;;;;155.00;155.00;;;;;;;;2;234068109;234068109;-80
2021/09/29 15:52:34;;;;;;;;;159.00;159.00;;;;;;;;2;234067561;234067561;-80
2021/09/29 16:01:41;;;;;;;;;155.50;155.50;;;;;;;;2;279080704;279080704;-82
2021/09/29 16:38:09;;;;;;;;;175.00;175.00;;;;;;;;2;279081371;279081371;-80
2021/09/29 16:46:53;;;;;;;;;167.00;167.00;;;;;;;;2;234070507;234070507;-79
2021/09/29 16:55:54;;;;;;;;;167.00;159.00;;;;;;;;2;279083247;279083247;-79
2021/09/29 17:04:37;;;;;;;;;171.00;171.00;;;;;;;;2;234071654;234071654;-74
2021/09/29 17:13:40;;;;;;;;;153.00;153.00;;;;;;;;2;279079646;279079646;-80
2021/09/29 17:22:22;;;;;;;;;156.50;156.50;;;;;;;;2;234071071;234071071;-79
2021/09/29 17:31:49;;;;;;;;;159.00;159.00;;;;;;;;2;279083007;279083007;-78
2021/09/29 17:58:47;;;;;;;;;149.00;149.00;;;;;;;;2;234071836;234071836;-80
2021/09/29 18:07:50;;;;;;;;;152.50;152.50;;;;;;;;2;279079717;279079717;-81
2021/09/29 18:16:32;;;;;;;;;;;;;;;;;;2;234067758;234067758;-81
2021/09/29 18:25:37;;;;;;;;;149.00;149.00;;;;;;;;2;279081122;279081122;-82
2021/09/29 18:34:21;;;;;;;;;159.50;153.50;;;;;;;;2;234066455;234066455;-82
2021/09/29 18:43:22;;;;;;;;;151.50;151.50;;;;;;;;2;279080560;279080560;-82
2021/09/29 18:52:07;;;;;;;;;153.50;153.50;;;;;;;;2;234070233;234070233;-82
2021/09/29 19:10:08;;;;;;;;;138.50;135.50;;;;;;;;2;234069389;234069389;-81
2021/09/29 19:19:09;;;;;;;;;150.50;150.50;;;;;;;;2;279081289;279081289;-80
2021/09/29 19:28:03;;;;;;;;;141.50;141.50;;;;;;;;2;234069481;234069481;-80
2021/09/29 19:37:04;;;;;;;;;160.50;160.50;;;;;;;;2;279080520;279080520;-80
2021/09/29 19:45:48;;;;;;;;;146.00;146.00;;;;;;;;2;234069081;234069081;-82
2021/09/29 20:13:09;;;;;;;;;150.50;150.50;;;;;;;;2;279082494;279082494;-80
2021/09/29 20:21:52;;;;;;;;;147.00;147.00;;;;;;;;2;234067306;234067306;-80
2021/09/29 20:30:53;;;;;;;;;;;;;;;;;;2;279080892;279080892;-80
2021/09/29 20:48:55;;;;;;;;;141.00;141.00;;;;;;;;2;279080697;279080697;-81
2021/09/29 20:57:37;;;;;;;;;135.50;134.50;;;;;;;;2;234070007;234070007;-80
2021/09/29 21:06:39;;;;;;;;;;;;;;;;;;2;279079997;279079997;-79
2021/09/29 21:15:33;;;;;;;;;124.50;124.50;;;;;;;;2;234070452;234070452;-79
2021/09/29 21:24:34;;;;;;;;;145.50;145.50;;;;;;;;2;279080418;279080418;-79
2021/09/29 21:33:23;;;;;;;;;152.00;152.00;;;;;;;;2;234068266;234068266;-79
2021/09/29 22:01:10;;;;;;;;;135.50;135.50;;;;;;;;2;279078693;279078693;-79
2021/09/29 23:04:41;;;;;;;;;147.00;147.00;;;;;;;;2;234071264;234071264;-79
2021/09/29 23:13:56;;;;;;;;;151.00;151.00;;;;;;;;2;279078655;279078655;-79
2021/09/29 23:41:08;;;;;;;;;149.00;149.00;;;;;;;;2;234067778;234067778;-79
2021/09/29 23:50:08;;;;;;;;;156.00;156.00;;;;;;;;2;279081035;279081035;-79
2021/09/29 23:58:51;;;;;;;;;150.00;150.00;;;;;;;;2;234071059;234071059;-79
